Time;durP1;ratioP1;P1;durP2;ratioP2;P2;SDS_P1;SDS_P2;PMS_P1;PMS_P2;Temp;Humidity;BMP_temperature;BMP_pressure;BME280_temperature;BME280_humidity;BME280_pressure;Samples;Min_cycle;Max_cycle;Signal;HPM_P1;HPM_P2
2022/07/02 00:02:17;;;;;;;2.58;1.50;;;17.80;99.90;;;;;;4994285;28;20172;-79
2022/07/02 00:05:01;;;;;;;2.33;1.50;;;17.80;99.90;;;;;;4994010;28;20165;-79
2022/07/02 00:07:27;;;;;;;2.00;1.48;;;17.80;99.90;;;;;;4993879;28;20173;-90
2022/07/02 00:09:58;;;;;;;11.88;1.55;;;17.90;99.90;;;;;;4993764;28;20200;-91
2022/07/02 00:12:28;;;;;;;7.53;1.52;;;18.00;99.90;;;;;;4993628;28;20188;-84
2022/07/02 00:14:56;;;;;;;8.82;2.47;;;18.20;99.90;;;;;;4994126;28;20198;-84
2022/07/02 00:17:22;;;;;;;8.15;1.55;;;18.40;99.90;;;;;;4995140;28;20193;-79
2022/07/02 00:19:49;;;;;;;5.55;1.63;;;18.50;99.90;;;;;;4996053;28;20201;-79
2022/07/02 00:22:15;;;;;;;8.20;1.55;;;18.50;99.90;;;;;;5000430;28;20228;-79
2022/07/02 00:24:42;;;;;;;9.27;1.90;;;18.50;99.90;;;;;;4997651;28;20176;-80
2022/07/02 00:27:13;;;;;;;5.40;1.45;;;18.50;99.90;;;;;;4997672;28;20169;-79
2022/07/02 00:29:56;;;;;;;9.95;1.85;;;18.40;99.90;;;;;;4993700;28;20273;-88
2022/07/02 00:32:26;;;;;;;15.30;1.98;;;18.40;99.90;;;;;;4993836;28;20268;-79
2022/07/02 00:34:52;;;;;;;4.20;1.50;;;18.20;99.90;;;;;;4993677;28;20241;-79
2022/07/02 00:37:19;;;;;;;1.98;1.33;;;18.40;99.90;;;;;;4993882;28;20173;-90
2022/07/02 00:39:44;;;;;;;7.13;1.20;;;18.30;99.90;;;;;;4994223;28;20270;-80
2022/07/02 00:42:11;;;;;;;4.65;1.60;;;18.20;99.90;;;;;;4992353;28;20177;-80
2022/07/02 00:44:37;;;;;;;3.03;1.40;;;18.20;99.90;;;;;;4993620;28;20161;-79
2022/07/02 00:47:06;;;;;;;5.90;1.33;;;18.20;99.90;;;;;;4993500;28;20162;-90
2022/07/02 00:49:34;;;;;;;6.43;1.30;;;18.20;99.90;;;;;;4993666;28;20231;-79
2022/07/02 00:52:01;;;;;;;2.28;1.38;;;18.20;99.90;;;;;;4993510;28;20584;-79
2022/07/02 00:54:27;;;;;;;2.80;1.30;;;18.20;99.90;;;;;;4992356;28;20216;-84
2022/07/02 00:56:52;;;;;;;9.95;1.65;;;18.20;99.90;;;;;;4992211;28;20537;-79
2022/07/02 00:59:20;;;;;;;2.40;1.50;;;18.20;99.90;;;;;;4993196;28;20197;-91
2022/07/02 01:01:46;;;;;;;7.85;1.38;;;18.20;99.90;;;;;;4993400;28;20183;-80
2022/07/02 01:04:14;;;;;;;3.80;1.55;;;18.20;99.90;;;;;;4993751;28;20600;-81
2022/07/02 01:06:41;;;;;;;8.98;2.97;;;18.20;99.90;;;;;;4993670;28;20622;-83
2022/07/02 01:11:55;;;;;;;7.97;1.05;;;18.60;99.90;;;;;;4993141;28;20570;-79
2022/07/02 01:14:21;;;;;;;1.85;1.08;;;18.60;99.90;;;;;;4993141;28;20169;-79
2022/07/02 01:16:47;;;;;;;5.53;1.27;;;18.50;99.90;;;;;;4992051;28;20165;-91
2022/07/02 01:19:17;;;;;;;2.60;1.13;;;18.60;99.90;;;;;;4993023;28;20255;-79
2022/07/02 01:22:12;;;;;;;6.90;1.20;;;18.60;99.90;;;;;;4993226;28;20173;-80
2022/07/02 01:24:38;;;;;;;1.83;1.25;;;18.60;99.90;;;;;;4993495;28;20166;-88
2022/07/02 01:27:03;;;;;;;13.40;1.38;;;18.60;99.90;;;;;;4992167;28;20177;-91
2022/07/02 01:29:29;;;;;;;3.83;1.38;;;18.60;99.90;;;;;;4993156;28;20268;-81
2022/07/02 01:31:55;;;;;;;2.15;1.20;;;18.40;99.90;;;;;;4992513;28;20189;-81
2022/07/02 01:34:20;;;;;;;3.65;1.10;;;18.30;99.90;;;;;;4993078;28;20228;-80
2022/07/02 01:36:47;;;;;;;14.30;1.33;;;18.40;99.90;;;;;;4993660;28;20172;-79
2022/07/02 01:39:13;;;;;;;1.60;1.13;;;18.40;99.90;;;;;;5006564;28;20177;-79
2022/07/02 01:41:38;;;;;;;2.75;1.33;;;18.50;99.90;;;;;;5017642;28;20225;-86
2022/07/02 01:44:08;;;;;;;1.70;0.90;;;18.50;99.90;;;;;;5017734;28;20169;-86
2022/07/02 01:46:34;;;;;;;1.92;1.20;;;18.60;99.90;;;;;;4997524;28;20182;-89
2022/07/02 01:49:00;;;;;;;2.05;1.33;;;18.30;99.90;;;;;;4997599;28;20181;-91
2022/07/02 01:51:26;;;;;;;2.25;1.20;;;18.30;99.90;;;;;;4997249;28;20193;-92
2022/07/02 01:53:51;;;;;;;5.25;1.40;;;18.30;99.90;;;;;;4997353;28;20157;-88
2022/07/02 01:56:17;;;;;;;1.45;0.90;;;18.50;99.90;;;;;;4997356;28;20166;-91
2022/07/02 01:58:43;;;;;;;2.95;1.15;;;18.50;99.90;;;;;;4997095;28;20189;-90
2022/07/02 02:01:09;;;;;;;3.20;1.10;;;18.50;99.90;;;;;;4995409;28;20209;-80
2022/07/02 02:03:34;;;;;;;1.30;0.85;;;18.40;99.90;;;;;;4996628;28;20232;-86
2022/07/02 02:06:00;;;;;;;7.30;1.45;;;18.40;99.90;;;;;;4995232;28;20173;-80
2022/07/02 02:08:25;;;;;;;12.60;1.65;;;18.50;99.90;;;;;;4996861;28;20186;-90
2022/07/02 02:10:51;;;;;;;1.65;1.15;;;18.60;99.90;;;;;;4996929;28;20247;-80
2022/07/02 02:13:17;;;;;;;2.90;1.00;;;18.60;99.90;;;;;;4996774;28;20173;-90
2022/07/02 02:15:42;;;;;;;3.25;1.13;;;18.50;99.90;;;;;;4996833;28;20227;-90
2022/07/02 02:18:08;;;;;;;4.20;1.10;;;18.50;99.90;;;;;;4996714;28;20192;-85
2022/07/02 02:20:34;;;;;;;7.93;1.38;;;18.60;99.90;;;;;;4996598;28;20538;-89
2022/07/02 02:23:04;;;;;;;2.47;1.00;;;18.60;99.90;;;;;;4996936;28;20597;-89
2022/07/02 02:25:31;;;;;;;2.97;1.75;;;18.40;99.90;;;;;;4995844;28;20180;-91
2022/07/02 02:27:57;;;;;;;1.80;1.00;;;18.40;99.90;;;;;;4996638;28;20169;-89
2022/07/02 02:30:22;;;;;;;1.55;0.98;;;18.40;99.90;;;;;;4996131;28;20247;-90
2022/07/02 02:32:48;;;;;;;1.95;1.20;;;18.50;99.90;;;;;;4996243;28;20678;-91
2022/07/02 02:35:13;;;;;;;8.18;1.42;;;18.50;99.90;;;;;;4996190;28;20165;-87
2022/07/02 02:37:39;;;;;;;2.95;1.00;;;18.30;99.90;;;;;;4996220;28;20253;-83
2022/07/02 02:40:05;;;;;;;4.50;1.42;;;18.20;99.90;;;;;;4996062;28;20221;-89
2022/07/02 02:42:31;;;;;;;2.00;1.00;;;18.00;99.90;;;;;;4995210;28;20625;-84
2022/07/02 02:44:57;;;;;;;2.70;1.38;;;17.90;99.90;;;;;;4995743;28;20169;-80
2022/07/02 02:47:23;;;;;;;3.67;1.20;;;17.80;99.90;;;;;;4994747;28;20174;-79
2022/07/02 02:49:48;;;;;;;3.58;1.27;;;17.90;99.90;;;;;;4996089;28;20232;-91
2022/07/02 02:52:14;;;;;;;6.28;1.48;;;17.70;99.90;;;;;;4994864;28;20205;-90
2022/07/02 02:54:40;;;;;;;3.88;1.10;;;17.60;99.90;;;;;;4995952;28;20177;-88
2022/07/02 02:57:06;;;;;;;2.80;1.27;;;17.60;99.90;;;;;;4996240;28;20682;-91
2022/07/02 02:59:31;;;;;;;1.73;1.52;;;17.40;99.90;;;;;;4995488;28;20209;-78
2022/07/02 03:01:57;;;;;;;2.58;1.30;;;17.50;99.90;;;;;;4995962;28;20165;-89
2022/07/02 03:04:22;;;;;;;6.22;1.58;;;17.50;99.90;;;;;;4996073;28;20165;-90
2022/07/02 03:06:48;;;;;;;5.22;1.70;;;17.40;99.90;;;;;;4995086;28;20652;-91
2022/07/02 03:09:14;;;;;;;6.47;1.45;;;17.40;99.90;;;;;;4994794;28;20188;-90
2022/07/02 03:11:39;;;;;;;4.80;1.40;;;17.20;99.90;;;;;;4999387;28;20196;-78
2022/07/02 03:14:05;;;;;;;2.65;0.95;;;17.20;99.90;;;;;;4997981;28;20177;-78
2022/07/02 03:16:31;;;;;;;1.38;1.23;;;17.00;99.90;;;;;;4998203;28;20172;-78
2022/07/02 03:18:57;;;;;;;18.92;2.00;;;17.00;99.90;;;;;;4999328;28;20177;-78
2022/07/02 03:21:23;;;;;;;4.82;1.60;;;17.00;99.90;;;;;;4996274;28;20232;-77
2022/07/02 03:23:48;;;;;;;10.60;1.50;;;16.90;99.90;;;;;;4998656;28;20185;-78
2022/07/02 03:26:14;;;;;;;1.20;1.00;;;16.60;99.90;;;;;;4995500;28;20264;-79
2022/07/02 03:28:40;;;;;;;3.13;1.08;;;16.50;99.90;;;;;;5004664;28;20190;-89
2022/07/02 03:31:05;;;;;;;3.55;1.35;;;16.40;99.90;;;;;;5005746;28;20596;-88
2022/07/02 03:33:31;;;;;;;3.30;1.30;;;16.10;99.90;;;;;;5009094;28;20630;-89
2022/07/02 03:35:57;;;;;;;5.03;1.27;;;16.10;99.90;;;;;;5004526;28;20173;-89
2022/07/02 03:38:22;;;;;;;2.85;1.23;;;16.20;99.90;;;;;;5003909;28;20689;-89
2022/07/02 03:40:48;;;;;;;2.53;1.20;;;16.10;99.90;;;;;;5005398;28;20208;-80
2022/07/02 03:43:13;;;;;;;2.35;1.20;;;16.10;99.90;;;;;;5004733;28;20180;-90
2022/07/02 03:45:39;;;;;;;8.68;1.35;;;16.10;99.90;;;;;;4997169;28;20853;-89
2022/07/02 03:48:05;;;;;;;7.15;1.45;;;16.10;99.90;;;;;;4995451;28;20185;-89
2022/07/02 03:50:30;;;;;;;2.25;1.15;;;16.10;99.90;;;;;;4995817;28;20183;-91
2022/07/02 03:52:56;;;;;;;2.35;1.33;;;16.20;99.90;;;;;;4995130;28;20161;-92
2022/07/02 03:55:22;;;;;;;5.10;1.33;;;16.30;99.90;;;;;;5000679;28;20229;-80
2022/07/02 03:57:47;;;;;;;7.97;1.30;;;16.30;99.90;;;;;;5014215;28;20164;-80
2022/07/02 04:00:13;;;;;;;5.75;1.50;;;16.30;99.90;;;;;;5018172;28;20224;-82
2022/07/02 04:02:39;;;;;;;4.90;1.30;;;16.20;99.90;;;;;;5013797;28;20177;-90
2022/07/02 04:05:06;;;;;;;3.58;1.40;;;16.30;99.90;;;;;;4995399;28;20174;-89
2022/07/02 04:07:31;;;;;;;7.45;1.60;;;16.40;99.90;;;;;;4994769;28;20224;-79
2022/07/02 04:09:57;;;;;;;3.67;1.40;;;16.90;99.90;;;;;;4993452;28;20200;-79
2022/07/02 04:12:22;;;;;;;6.10;1.17;;;17.60;99.90;;;;;;4994002;28;20239;-91
2022/07/02 04:14:48;;;;;;;10.85;1.52;;;18.20;99.90;;;;;;4994804;28;20169;-80
2022/07/02 04:17:14;;;;;;;2.10;1.30;;;18.60;99.90;;;;;;4993808;28;20216;-91
2022/07/02 04:19:40;;;;;;;3.42;1.48;;;18.80;99.90;;;;;;4994557;28;20241;-92
2022/07/02 04:22:05;;;;;;;4.85;1.20;;;19.00;99.90;;;;;;4994303;28;20259;-79
2022/07/02 04:24:31;;;;;;;5.68;1.35;;;19.00;99.90;;;;;;4994147;28;20192;-90
2022/07/02 04:26:57;;;;;;;2.42;1.45;;;19.00;99.90;;;;;;4993232;28;20630;-80
2022/07/02 04:29:22;;;;;;;4.00;1.20;;;19.10;99.90;;;;;;4994183;28;20185;-92
2022/07/02 04:31:48;;;;;;;4.30;1.50;;;19.00;99.90;;;;;;4994087;28;20177;-92
2022/07/02 04:34:14;;;;;;;1.45;1.20;;;19.00;99.90;;;;;;4994307;28;20693;-92
2022/07/02 04:36:40;;;;;;;9.48;1.80;;;18.70;99.90;;;;;;4994262;28;20657;-92
2022/07/02 04:39:06;;;;;;;1.73;1.52;;;18.70;99.90;;;;;;4994797;28;20723;-93
2022/07/02 04:41:32;;;;;;;1.63;1.17;;;18.60;99.90;;;;;;4994511;28;20213;-92
2022/07/02 04:43:58;;;;;;;4.03;1.15;;;18.50;99.90;;;;;;4993850;28;20169;-91
2022/07/02 04:46:24;;;;;;;4.53;1.30;;;18.40;99.90;;;;;;4994067;28;20177;-87
2022/07/02 04:48:50;;;;;;;4.65;1.30;;;18.40;99.90;;;;;;4993074;28;20534;-89
2022/07/02 04:51:17;;;;;;;8.32;1.40;;;18.30;99.90;;;;;;4994221;28;20223;-84
2022/07/02 04:53:43;;;;;;;18.15;1.65;;;18.20;99.90;;;;;;4993380;28;20223;-92
2022/07/02 04:56:08;;;;;;;7.15;1.40;;;18.20;99.90;;;;;;4994013;28;20161;-89
2022/07/02 04:58:34;;;;;;;4.60;1.40;;;18.50;99.90;;;;;;4993981;28;20661;-90
2022/07/02 05:01:00;;;;;;;5.05;1.52;;;18.60;99.90;;;;;;4993703;28;20236;-91
2022/07/02 05:03:25;;;;;;;7.18;1.40;;;18.60;99.90;;;;;;4993884;28;20166;-92
2022/07/02 05:05:51;;;;;;;4.32;1.20;;;18.60;99.90;;;;;;4993224;28;20205;-87
2022/07/02 05:08:20;;;;;;;1.92;1.15;;;18.60;99.90;;;;;;4993849;28;20268;-88
2022/07/02 05:10:46;;;;;;;1.65;1.20;;;18.70;99.90;;;;;;4993947;28;20204;-90
2022/07/02 05:13:11;;;;;;;1.67;1.10;;;18.70;99.90;;;;;;4994228;28;20212;-92
2022/07/02 05:15:37;;;;;;;5.30;2.17;;;18.40;99.90;;;;;;4996656;28;20173;-91
2022/07/02 05:18:03;;;;;;;2.00;1.25;;;18.30;99.90;;;;;;4997584;28;20608;-92
2022/07/02 05:20:28;;;;;;;1.02;0.93;;;18.20;99.90;;;;;;4997828;28;20212;-80
2022/07/02 05:22:54;;;;;;;4.90;1.75;;;18.10;99.90;;;;;;4997449;28;20167;-87
2022/07/02 05:25:20;;;;;;;3.97;1.77;;;18.20;99.90;;;;;;4997230;28;20244;-90
2022/07/02 05:27:45;;;;;;;6.43;1.55;;;18.20;99.90;;;;;;4997171;28;20180;-79
2022/07/02 05:30:11;;;;;;;2.78;1.52;;;18.30;99.90;;;;;;4996791;28;20188;-80
2022/07/02 05:32:37;;;;;;;8.65;2.38;;;18.40;99.90;;;;;;4997618;28;20161;-92
2022/07/02 05:35:03;;;;;;;8.43;1.35;;;18.50;99.90;;;;;;4997586;28;20192;-93
2022/07/02 05:37:28;;;;;;;2.75;1.10;;;18.70;99.90;;;;;;4997615;28;20161;-82
2022/07/02 05:39:54;;;;;;;2.28;0.90;;;19.00;99.90;;;;;;4997179;28;20617;-79
2022/07/02 05:42:20;;;;;;;4.93;1.20;;;19.10;99.90;;;;;;4997645;28;20184;-91
2022/07/02 05:44:45;;;;;;;2.30;0.90;;;19.20;99.90;;;;;;4997357;28;20172;-84
2022/07/02 05:47:11;;;;;;;5.95;1.10;;;19.40;99.90;;;;;;4997185;28;20197;-87
2022/07/02 05:49:36;;;;;;;4.95;0.90;;;19.40;99.90;;;;;;4996868;28;20545;-79
2022/07/02 05:52:02;;;;;;;5.43;0.90;;;19.40;99.90;;;;;;4997655;28;20165;-79
2022/07/02 05:54:28;;;;;;;3.28;1.08;;;19.40;99.90;;;;;;4996153;28;20638;-92
2022/07/02 05:56:54;;;;;;;8.43;1.15;;;19.00;99.90;;;;;;4997100;28;20177;-78
2022/07/02 05:59:21;;;;;;;2.80;1.05;;;18.90;99.90;;;;;;4996484;28;20201;-77
2022/07/02 06:01:47;;;;;;;10.93;1.20;;;18.90;99.90;;;;;;4996935;28;20181;-81
2022/07/02 06:04:12;;;;;;;4.22;0.60;;;19.10;99.90;;;;;;4997039;28;20241;-83
2022/07/02 06:09:22;;;;;;;0.98;0.63;;;19.00;99.90;;;;;;4996299;28;20263;-82
2022/07/02 06:11:48;;;;;;;3.42;0.77;;;19.00;99.90;;;;;;4996120;28;20169;-81
2022/07/02 06:14:13;;;;;;;9.32;1.88;;;19.00;99.90;;;;;;4995040;28;20618;-80
2022/07/02 06:16:39;;;;;;;1.52;0.70;;;19.10;99.90;;;;;;4996267;28;20224;-81
2022/07/02 06:19:06;;;;;;;1.38;0.70;;;19.40;99.90;;;;;;4998241;28;20237;-81
2022/07/02 06:21:32;;;;;;;2.47;0.70;;;19.60;99.90;;;;;;5007550;28;20657;-81
2022/07/02 06:23:58;;;;;;;1.88;0.57;;;19.80;99.90;;;;;;5011054;28;20165;-80
2022/07/02 06:26:24;;;;;;;1.88;0.57;;;19.60;99.90;;;;;;5000507;28;20234;-82
2022/07/02 06:28:49;;;;;;;3.58;0.88;;;19.60;99.90;;;;;;4996345;28;20181;-81
2022/07/02 06:31:15;;;;;;;4.03;0.93;;;19.60;99.90;;;;;;4995373;28;20681;-81
2022/07/02 06:33:41;;;;;;;1.30;0.85;;;19.90;99.90;;;;;;4994143;28;20183;-82
2022/07/02 06:36:10;;;;;;;2.60;0.75;;;19.80;99.90;;;;;;4995202;28;20173;-82
2022/07/02 06:38:38;;;;;;;2.95;0.70;;;20.00;99.90;;;;;;4995066;28;20291;-81
2022/07/02 06:42:18;;;;;;;0.93;0.60;;;20.00;99.90;;;;;;4994887;28;20617;-82
2022/07/02 06:43:49;;;;;;;7.80;0.95;;;20.00;99.90;;;;;;4994749;28;20224;-81
2022/07/02 06:46:15;;;;;;;8.23;1.00;;;20.30;99.90;;;;;;4993945;28;20621;-80
2022/07/02 06:48:40;;;;;;;6.00;0.65;;;20.50;99.90;;;;;;4993613;28;20256;-81
2022/07/02 06:51:06;;;;;;;7.20;0.77;;;20.70;99.90;;;;;;4995385;28;20158;-81
2022/07/02 06:53:31;;;;;;;1.33;0.65;;;20.90;99.90;;;;;;4994647;28;20582;-81
2022/07/02 06:55:57;;;;;;;2.50;0.80;;;21.00;99.90;;;;;;4995162;28;20249;-80
2022/07/02 06:58:23;;;;;;;3.00;0.88;;;21.50;99.90;;;;;;4994602;28;20244;-80
2022/07/02 07:00:48;;;;;;;3.38;0.80;;;22.40;99.90;;;;;;4990535;28;20717;-82
2022/07/02 07:03:14;;;;;;;3.10;0.70;;;23.30;99.90;;;;;;4994699;28;20240;-80
2022/07/02 07:05:44;;;;;;;1.70;0.40;;;24.50;99.90;;;;;;4993480;28;20530;-79
2022/07/02 07:08:10;;;;;;;22.25;2.47;;;24.80;99.90;;;;;;4995097;28;20185;-82
2022/07/02 07:10:35;;;;;;;15.45;1.50;;;25.70;99.90;;;;;;4995187;28;20693;-80
2022/07/02 07:13:01;;;;;;;3.20;0.47;;;26.40;99.90;;;;;;4994685;28;20184;-80
2022/07/02 07:15:27;;;;;;;2.00;0.65;;;26.60;99.90;;;;;;4994454;28;20223;-79
2022/07/02 07:17:54;;;;;;;3.75;1.00;;;27.10;99.90;;;;;;4994534;28;20173;-80
2022/07/02 07:20:26;;;;;;;14.88;0.90;;;26.50;99.60;;;;;;4994554;28;20208;-80
2022/07/02 07:22:53;;;;;;;2.97;0.57;;;26.00;99.80;;;;;;4993492;28;20173;-80
2022/07/02 07:25:19;;;;;;;2.38;0.77;;;26.30;99.60;;;;;;4994522;28;20176;-79
2022/07/02 07:27:44;;;;;;;2.95;0.70;;;27.10;98.80;;;;;;4994807;28;20166;-81
2022/07/02 07:30:10;;;;;;;4.40;0.82;;;27.30;97.90;;;;;;4994148;28;20205;-80
2022/07/02 07:32:36;;;;;;;3.58;0.50;;;26.50;97.80;;;;;;4994282;28;20173;-80
2022/07/02 07:35:02;;;;;;;7.45;0.68;;;26.10;98.30;;;;;;4994346;28;20162;-85
2022/07/02 07:37:28;;;;;;;3.45;0.77;;;26.10;98.30;;;;;;4993808;28;20247;-82
2022/07/02 07:39:55;;;;;;;1.60;0.47;;;25.90;98.80;;;;;;4994574;28;20212;-86
2022/07/02 07:42:22;;;;;;;2.30;0.55;;;26.40;98.50;;;;;;4993224;28;20173;-80
2022/07/02 07:44:50;;;;;;;8.68;1.15;;;26.50;98.00;;;;;;4994526;28;20260;-81
2022/07/02 07:47:16;;;;;;;12.98;0.55;;;27.30;97.10;;;;;;4994272;28;20176;-87
2022/07/02 07:49:42;;;;;;;9.65;1.00;;;26.90;96.70;;;;;;4992892;28;20254;-87
2022/07/02 07:52:07;;;;;;;1.60;0.50;;;27.10;97.80;;;;;;4993468;28;20246;-80
2022/07/02 07:54:33;;;;;;;1.42;0.50;;;27.20;96.70;;;;;;4992821;28;20180;-81
2022/07/02 07:56:59;;;;;;;1.90;0.60;;;26.70;97.30;;;;;;4993907;28;20703;-78
2022/07/02 07:59:24;;;;;;;4.07;0.80;;;25.90;97.70;;;;;;4996601;28;20204;-82
2022/07/02 08:01:50;;;;;;;1.67;0.93;;;25.50;98.10;;;;;;4998221;28;20200;-78
2022/07/02 08:04:16;;;;;;;2.15;1.05;;;25.00;98.90;;;;;;5002351;28;20169;-82
2022/07/02 08:06:42;;;;;;;1.15;0.40;;;24.70;99.40;;;;;;4997173;28;20626;-82
2022/07/02 08:09:08;;;;;;;12.35;0.93;;;24.70;99.60;;;;;;4993373;28;20201;-83
2022/07/02 08:11:34;;;;;;;4.30;0.82;;;24.70;99.20;;;;;;4993513;28;20164;-79
2022/07/02 08:13:59;;;;;;;1.77;0.70;;;24.60;99.90;;;;;;4993300;28;20169;-78
2022/07/02 08:16:26;;;;;;;5.43;0.80;;;24.20;99.90;;;;;;4993966;28;20667;-82
2022/07/02 08:18:51;;;;;;;4.55;0.85;;;23.70;99.90;;;;;;4994198;28;20240;-80
2022/07/02 08:21:17;;;;;;;2.20;1.17;;;23.40;99.90;;;;;;4992395;28;20231;-80
2022/07/02 08:23:43;;;;;;;2.58;0.65;;;23.50;99.90;;;;;;4993847;28;20512;-79
2022/07/02 08:26:09;;;;;;;2.05;0.82;;;23.70;99.90;;;;;;4992976;28;20169;-80
2022/07/02 08:28:34;;;;;;;1.33;0.70;;;23.80;99.90;;;;;;4994205;28;20185;-80
2022/07/02 08:31:01;;;;;;;1.92;0.90;;;23.90;99.90;;;;;;4993818;28;20235;-80
2022/07/02 08:33:26;;;;;;;4.75;1.00;;;23.90;99.90;;;;;;4993384;28;20172;-80
2022/07/02 08:35:52;;;;;;;7.90;1.08;;;23.70;99.90;;;;;;4992367;28;20169;-80
2022/07/02 08:38:18;;;;;;;2.63;1.10;;;23.60;99.90;;;;;;4992462;28;20203;-84
2022/07/02 08:40:44;;;;;;;1.88;0.85;;;23.70;99.90;;;;;;4995041;28;20205;-82
2022/07/02 08:43:15;;;;;;;4.47;1.00;;;23.60;99.90;;;;;;4994444;28;20169;-80
2022/07/02 08:45:42;;;;;;;2.80;1.00;;;23.70;99.90;;;;;;4995933;28;20169;-84
2022/07/02 08:48:11;;;;;;;4.80;1.02;;;23.80;99.90;;;;;;5015186;28;20176;-83
2022/07/02 08:50:38;;;;;;;52.47;5.38;;;23.90;99.90;;;;;;4993221;28;20291;-81
2022/07/02 08:53:04;;;;;;;9.30;1.50;;;24.10;99.90;;;;;;4993738;28;20256;-87
2022/07/02 08:55:33;;;;;;;3.95;1.05;;;24.30;99.90;;;;;;4992277;28;20172;-80
2022/07/02 08:57:59;;;;;;;3.40;1.02;;;24.10;99.90;;;;;;4991865;28;20161;-80
2022/07/02 09:00:25;;;;;;;3.97;1.13;;;24.10;99.90;;;;;;4993315;28;20235;-85
2022/07/02 09:02:53;;;;;;;3.05;1.20;;;23.90;99.90;;;;;;4993695;28;20165;-82
2022/07/02 09:05:20;;;;;;;4.57;1.40;;;24.10;99.90;;;;;;4991773;28;20196;-82
2022/07/02 09:07:46;;;;;;;12.50;1.30;;;24.00;99.90;;;;;;4992604;28;20224;-83
2022/07/02 09:10:13;;;;;;;8.48;1.17;;;24.10;99.90;;;;;;4993337;28;20170;-81
2022/07/02 09:12:40;;;;;;;4.65;1.25;;;24.20;99.90;;;;;;4993385;28;20165;-81
2022/07/02 09:15:07;;;;;;;12.85;1.30;;;24.30;99.90;;;;;;4993265;28;20169;-84
2022/07/02 09:17:32;;;;;;;7.75;1.05;;;24.10;99.90;;;;;;4993315;28;20176;-79
2022/07/02 09:19:58;;;;;;;6.22;0.98;;;24.00;99.90;;;;;;4992002;28;20213;-80
2022/07/02 09:22:37;;;;;;;2.40;0.88;;;24.10;99.90;;;;;;4993393;28;20169;-84
2022/07/02 09:25:09;;;;;;;2.22;1.13;;;24.30;99.90;;;;;;4991989;28;20168;-80
2022/07/02 09:27:35;;;;;;;5.30;1.10;;;24.40;99.90;;;;;;4993221;28;20169;-83
2022/07/02 09:30:01;;;;;;;0.55;0.55;;;24.60;99.90;;;;;;4991552;28;20193;-80
2022/07/02 09:32:26;;;;;;;5.38;0.57;;;24.40;99.90;;;;;;4992861;28;20517;-81
2022/07/02 09:34:53;;;;;;;9.10;0.95;;;24.50;99.90;;;;;;4993131;28;20184;-81
2022/07/02 09:37:25;;;;;;;5.68;0.60;;;24.70;99.90;;;;;;4993052;28;20199;-84
2022/07/02 09:39:52;;;;;;;8.40;0.77;;;24.80;99.90;;;;;;4991513;28;20197;-80
2022/07/02 09:42:25;;;;;;;4.93;0.77;;;24.60;99.90;;;;;;4992855;28;20169;-80
2022/07/02 09:44:51;;;;;;;1.75;0.70;;;24.80;99.90;;;;;;4991864;28;20523;-80
2022/07/02 09:47:28;;;;;;;3.53;0.70;;;24.80;99.90;;;;;;4993148;28;20588;-84
2022/07/02 09:49:53;;;;;;;1.73;1.50;;;24.90;99.90;;;;;;4992967;28;20237;-82
2022/07/02 09:52:19;;;;;;;3.13;0.90;;;25.20;99.90;;;;;;4992969;28;20211;-80
2022/07/02 09:54:46;;;;;;;0.70;0.57;;;25.50;99.40;;;;;;4993254;28;20248;-84
2022/07/02 09:57:12;;;;;;;1.85;0.55;;;25.60;99.90;;;;;;4993426;28;20154;-84
2022/07/02 09:59:39;;;;;;;2.22;0.60;;;25.30;98.80;;;;;;4992119;28;20208;-88
2022/07/02 10:02:17;;;;;;;1.05;0.50;;;25.40;98.60;;;;;;4996102;28;20173;-86
2022/07/02 10:04:44;;;;;;;2.50;0.57;;;25.20;98.90;;;;;;4997574;28;20184;-86
2022/07/02 10:07:10;;;;;;;1.98;0.55;;;25.30;98.80;;;;;;4997273;28;20170;-86
2022/07/02 10:09:39;;;;;;;1.98;0.60;;;25.30;99.90;;;;;;4997245;28;20192;-86
2022/07/02 10:12:07;;;;;;;2.58;0.70;;;25.20;98.60;;;;;;4996470;28;20207;-85
2022/07/02 10:14:37;;;;;;;1.42;1.30;;;25.10;98.50;;;;;;4995560;28;20165;-86
2022/07/02 10:17:03;;;;;;;3.80;0.68;;;25.00;98.70;;;;;;4996241;28;20212;-85
2022/07/02 10:19:30;;;;;;;0.50;0.50;;;25.30;99.20;;;;;;4995767;28;20284;-87
2022/07/02 10:21:56;;;;;;;9.48;0.70;;;25.60;98.70;;;;;;4996247;28;20276;-85
2022/07/02 10:24:25;;;;;;;4.45;0.50;;;25.20;98.30;;;;;;4997112;28;20275;-87
2022/07/02 10:26:51;;;;;;;1.20;0.60;;;24.90;97.90;;;;;;4998278;28;20173;-89
2022/07/02 10:29:18;;;;;;;1.95;1.45;;;24.90;98.20;;;;;;5001806;28;20189;-87
2022/07/02 10:31:56;;;;;;;7.38;1.00;;;24.90;98.90;;;;;;4998619;28;20214;-87
2022/07/02 10:34:33;;;;;;;4.30;0.63;;;24.70;98.50;;;;;;4997939;28;20223;-88
2022/07/02 10:36:59;;;;;;;0.98;0.65;;;24.90;98.10;;;;;;4999645;28;20153;-90
2022/07/02 10:39:25;;;;;;;1.38;0.60;;;25.40;97.50;;;;;;5000769;28;20197;-94
2022/07/02 10:42:00;;;;;;;2.15;0.82;;;25.60;98.60;;;;;;4998483;28;20247;-95
2022/07/02 10:44:36;;;;;;;2.80;0.63;;;25.80;98.20;;;;;;4999036;28;20175;-91
2022/07/02 10:47:02;;;;;;;4.22;0.50;;;26.00;98.60;;;;;;5001042;28;20183;-95
2022/07/02 10:49:28;;;;;;;2.70;0.82;;;26.20;98.00;;;;;;4998900;28;20600;-94
2022/07/02 10:51:59;;;;;;;4.70;0.68;;;26.10;97.70;;;;;;4998893;28;20169;-82
2022/07/02 10:54:32;;;;;;;5.60;0.85;;;26.30;97.20;;;;;;4998741;28;20173;-82
2022/07/02 10:56:58;;;;;;;2.20;0.68;;;25.90;98.00;;;;;;5000355;28;20636;-93
2022/07/02 10:59:24;;;;;;;3.42;0.65;;;26.00;97.40;;;;;;4997283;28;20185;-92
2022/07/02 11:02:04;;;;;;;1.73;0.60;;;26.10;98.00;;;;;;4998813;28;20228;-91
2022/07/02 11:04:30;;;;;;;0.65;0.65;;;25.70;99.30;;;;;;4997458;28;20169;-81
2022/07/02 11:07:10;;;;;;;1.00;0.50;;;25.80;98.70;;;;;;4999899;28;20184;-81
2022/07/02 11:09:58;;;;;;;0.63;0.60;;;25.80;98.30;;;;;;4997275;28;20204;-86
2022/07/02 11:12:44;;;;;;;3.15;1.02;;;25.50;98.90;;;;;;5011022;28;20225;-81
2022/07/02 11:15:32;;;;;;;4.07;0.70;;;25.50;98.00;;;;;;4998980;28;20154;-85
2022/07/02 11:18:02;;;;;;;0.80;0.65;;;25.80;98.30;;;;;;5011429;28;20161;-89
2022/07/02 11:20:28;;;;;;;1.15;0.73;;;25.50;97.00;;;;;;4998682;28;20236;-89
2022/07/02 11:22:56;;;;;;;0.77;0.50;;;25.30;98.80;;;;;;5000000;28;20176;-87
2022/07/02 11:25:23;;;;;;;0.73;0.30;;;25.30;97.80;;;;;;5002067;28;20169;-84
2022/07/02 11:27:59;;;;;;;1.05;0.40;;;25.50;97.20;;;;;;4998937;28;20193;-87
2022/07/02 11:30:26;;;;;;;2.75;0.60;;;25.80;98.20;;;;;;4996042;28;20188;-88
2022/07/02 11:32:52;;;;;;;1.23;0.40;;;26.00;95.90;;;;;;4996763;28;20158;-85
2022/07/02 11:35:18;;;;;;;8.68;0.70;;;26.00;97.00;;;;;;4996434;28;20184;-87
2022/07/02 11:37:44;;;;;;;1.58;0.50;;;26.10;96.60;;;;;;4994701;28;20522;-88
2022/07/02 11:40:24;;;;;;;0.95;0.50;;;26.10;96.00;;;;;;4994318;28;20216;-86
2022/07/02 11:42:50;;;;;;;4.68;0.80;;;26.30;96.30;;;;;;4995595;28;20169;-85
2022/07/02 11:45:15;;;;;;;1.52;0.50;;;26.10;96.00;;;;;;4995697;28;20180;-84
2022/07/02 11:47:49;;;;;;;9.07;0.85;;;26.00;96.50;;;;;;4993951;28;20172;-87
2022/07/02 11:50:25;;;;;;;2.05;0.90;;;25.90;96.70;;;;;;4994381;28;20241;-88
2022/07/02 11:52:51;;;;;;;1.48;0.73;;;26.00;95.90;;;;;;4995286;28;20197;-87
2022/07/02 11:55:16;;;;;;;2.10;0.60;;;26.10;96.90;;;;;;4995576;28;20195;-87
2022/07/02 11:57:43;;;;;;;2.70;0.50;;;26.30;95.80;;;;;;4994655;28;20169;-89
2022/07/02 12:00:10;;;;;;;0.70;0.60;;;26.10;95.30;;;;;;4994002;28;20279;-87
2022/07/02 12:02:37;;;;;;;1.38;0.50;;;26.10;95.90;;;;;;4999036;28;20275;-88
2022/07/02 12:05:17;;;;;;;15.35;0.75;;;26.20;95.90;;;;;;4994302;28;20212;-88
2022/07/02 12:07:43;;;;;;;1.27;0.50;;;26.20;96.20;;;;;;4996009;28;20165;-87
2022/07/02 12:10:10;;;;;;;1.48;0.60;;;26.30;96.00;;;;;;4997379;28;20181;-88
2022/07/02 12:12:36;;;;;;;1.30;0.50;;;26.50;95.70;;;;;;4997966;28;20185;-87
2022/07/02 12:15:03;;;;;;;6.85;0.63;;;26.40;95.80;;;;;;4997446;28;20165;-86
2022/07/02 12:17:30;;;;;;;0.80;0.80;;;26.60;96.00;;;;;;4996413;28;20161;-86
2022/07/02 12:19:56;;;;;;;1.20;0.50;;;26.50;97.30;;;;;;5001325;28;20212;-85
2022/07/02 12:22:28;;;;;;;1.00;0.30;;;26.50;95.70;;;;;;4997373;28;20169;-89
2022/07/02 12:24:53;;;;;;;1.30;0.60;;;26.70;96.70;;;;;;4994679;28;20165;-85
2022/07/02 12:27:23;;;;;;;0.52;0.32;;;26.60;96.10;;;;;;4994879;28;20618;-90
2022/07/02 12:29:58;;;;;;;5.88;0.45;;;26.70;95.50;;;;;;4995658;28;20184;-89
2022/07/02 12:32:38;;;;;;;2.03;1.17;;;26.60;95.30;;;;;;4994894;28;20169;-84
2022/07/02 12:35:10;;;;;;;2.53;0.60;;;26.60;95.00;;;;;;4995019;28;20251;-88
2022/07/02 12:37:37;;;;;;;2.17;0.60;;;26.70;95.00;;;;;;4994895;28;20315;-84
2022/07/02 12:40:04;;;;;;;0.40;0.40;;;26.60;95.70;;;;;;4993424;28;20278;-89
2022/07/02 12:42:34;;;;;;;0.82;0.40;;;26.70;95.00;;;;;;4993420;28;20177;-85
2022/07/02 12:45:05;;;;;;;0.60;0.40;;;27.00;96.00;;;;;;4994825;28;20230;-85
2022/07/02 12:47:35;;;;;;;3.05;1.02;;;26.90;95.80;;;;;;4994632;28;20656;-85
2022/07/02 12:50:03;;;;;;;1.33;0.95;;;26.80;95.90;;;;;;4994783;28;20196;-86
2022/07/02 12:52:30;;;;;;;9.05;0.60;;;27.00;95.50;;;;;;4994993;28;20308;-87